Time;durP1;ratioP1;P1;durP2;ratioP2;P2;SDS_P1;SDS_P2;PMS_P1;PMS_P2;Temp;Humidity;BMP_temperature;BMP_pressure;BME280_temperature;BME280_humidity;BME280_pressure;Samples;Min_cycle;Max_cycle;Signal;HPM_P1;HPM_P2
2024/01/20 06:01:04;;;;;;;34.15;16.63;;;-3.30;82.60;;;;;;4557156;23;20146;-77
2024/01/20 06:03:06;;;;;;;33.92;17.23;;;-3.20;82.50;;;;;;4101688;29;20082;-77
2024/01/20 06:05:08;;;;;;;36.63;18.08;;;-3.20;82.60;;;;;;4101637;29;20098;-79
2024/01/20 06:07:11;;;;;;;31.92;17.70;;;-3.20;82.30;;;;;;4101678;29;20404;-79
2024/01/20 06:09:13;;;;;;;34.28;17.15;;;-3.20;82.60;;;;;;4101517;29;20047;-78
2024/01/20 06:11:14;;;;;;;36.80;18.10;;;-3.10;82.60;;;;;;4101512;29;20102;-79
2024/01/20 06:13:16;;;;;;;37.20;17.33;;;-3.00;82.30;;;;;;4101690;29;20055;-79
2024/01/20 06:15:17;;;;;;;34.53;17.10;;;-3.10;82.20;;;;;;4101571;29;20047;-79
2024/01/20 06:17:21;;;;;;;41.38;18.75;;;-3.00;82.90;;;;;;4101256;29;20106;-77
2024/01/20 06:19:22;;;;;;;38.42;18.25;;;-3.10;83.70;;;;;;4101282;29;20047;-76
2024/01/20 06:21:23;;;;;;;35.25;17.38;;;-3.00;83.80;;;;;;4100996;29;20071;-77
2024/01/20 06:23:25;;;;;;;38.88;18.63;;;-2.90;83.70;;;;;;4101424;29;20051;-80
2024/01/20 06:25:26;;;;;;;39.30;18.92;;;-2.90;83.90;;;;;;4100925;29;20043;-78
2024/01/20 06:27:30;;;;;;;38.70;19.30;;;-2.90;84.00;;;;;;4101291;29;20099;-77
2024/01/20 06:29:32;;;;;;;44.33;20.20;;;-2.90;84.30;;;;;;4101317;29;20451;-80
2024/01/20 06:31:33;;;;;;;39.42;18.55;;;-2.80;84.40;;;;;;4101059;29;20051;-81
2024/01/20 06:33:36;;;;;;;39.80;18.98;;;-2.80;84.50;;;;;;4101344;29;20052;-81
2024/01/20 06:35:38;;;;;;;38.92;19.83;;;-2.80;84.30;;;;;;4100959;29;20055;-78
2024/01/20 06:37:40;;;;;;;41.17;19.70;;;-2.90;84.30;;;;;;4101225;29;20143;-79
2024/01/20 06:39:42;;;;;;;43.95;20.85;;;-2.80;84.60;;;;;;4101080;29;20385;-80
2024/01/20 06:41:45;;;;;;;46.95;21.27;;;-3.00;84.80;;;;;;4101638;29;20479;-80
2024/01/20 06:43:47;;;;;;;43.63;21.55;;;-3.00;85.10;;;;;;4102360;29;20047;-79
2024/01/20 06:45:49;;;;;;;47.80;22.15;;;-2.90;84.50;;;;;;4114658;28;20047;-78
2024/01/20 06:47:51;;;;;;;47.80;23.00;;;-3.00;83.80;;;;;;4097495;28;20134;-74
2024/01/20 06:49:55;;;;;;;49.05;23.27;;;-3.00;83.70;;;;;;4092952;28;20058;-79
2024/01/20 06:51:57;;;;;;;46.33;20.60;;;-2.90;84.00;;;;;;4099938;29;20047;-79
2024/01/20 06:54:00;;;;;;;43.75;21.88;;;-3.00;84.20;;;;;;4101659;29;20381;-72
2024/01/20 06:56:00;;;;;;;44.17;20.80;;;-2.90;84.20;;;;;;4101361;29;20564;-79
2024/01/20 06:58:03;;;;;;;44.42;21.48;;;-2.90;83.90;;;;;;4101299;29;20043;-77
2024/01/20 07:00:08;;;;;;;42.58;20.20;;;-2.90;84.10;;;;;;4100850;28;20057;-80
2024/01/20 07:02:10;;;;;;;39.25;19.35;;;-3.00;84.20;;;;;;4100742;29;20059;-78
2024/01/20 07:04:12;;;;;;;43.95;21.17;;;-2.90;83.90;;;;;;4094895;29;20051;-81
2024/01/20 07:06:15;;;;;;;42.33;20.65;;;-2.90;83.60;;;;;;4095911;29;20126;-78
2024/01/20 07:08:17;;;;;;;43.47;20.90;;;-2.80;83.60;;;;;;4099022;29;20480;-77
2024/01/20 07:10:18;;;;;;;42.67;20.92;;;-2.80;82.70;;;;;;4102962;29;20055;-77
2024/01/20 07:12:21;;;;;;;40.88;20.15;;;-2.90;81.60;;;;;;4102482;29;20087;-76
2024/01/20 07:14:23;;;;;;;43.50;21.50;;;-3.00;82.00;;;;;;4102850;29;20132;-78
2024/01/20 07:16:25;;;;;;;41.17;20.58;;;-3.00;81.70;;;;;;4102918;29;20043;-78
2024/01/20 07:18:27;;;;;;;40.30;20.30;;;-3.00;81.40;;;;;;4099820;29;20051;-78
2024/01/20 07:20:29;;;;;;;47.05;22.85;;;-3.00;81.80;;;;;;4109220;29;20047;-77
2024/01/20 07:22:31;;;;;;;47.13;22.55;;;-3.00;81.40;;;;;;4118906;29;20047;-80
2024/01/20 07:24:33;;;;;;;43.75;20.73;;;-3.00;81.10;;;;;;4111363;29;20073;-77
2024/01/20 07:26:35;;;;;;;45.53;21.77;;;-3.00;81.20;;;;;;4115473;29;20090;-76
2024/01/20 07:28:37;;;;;;;39.03;19.85;;;-3.00;81.10;;;;;;4115145;29;20047;-79
2024/01/20 07:30:38;;;;;;;43.42;20.50;;;-2.90;80.70;;;;;;4100934;29;20047;-80
2024/01/20 07:32:40;;;;;;;42.85;21.10;;;-2.90;80.50;;;;;;4100692;29;20039;-79
2024/01/20 07:34:42;;;;;;;40.72;19.65;;;-2.90;80.10;;;;;;4098601;29;20519;-82
2024/01/20 07:36:44;;;;;;;37.67;18.48;;;-2.80;80.00;;;;;;4100142;29;20047;-79
2024/01/20 07:38:47;;;;;;;39.03;19.17;;;-2.90;79.40;;;;;;4084988;29;20047;-80
2024/01/20 07:40:53;;;;;;;38.72;18.70;;;-2.90;79.50;;;;;;4096167;29;20544;-76
2024/01/20 07:42:55;;;;;;;36.22;17.63;;;-2.80;79.80;;;;;;4089470;29;20055;-80
2024/01/20 07:44:57;;;;;;;34.15;15.18;;;-2.80;79.30;;;;;;4100487;29;20058;-79
2024/01/20 07:46:59;;;;;;;33.60;16.88;;;-2.80;79.60;;;;;;4100394;29;20090;-75
2024/01/20 07:49:00;;;;;;;31.92;15.43;;;-2.80;79.30;;;;;;4100496;29;20048;-76
2024/01/20 07:51:02;;;;;;;33.20;15.70;;;-2.80;79.20;;;;;;4101904;29;20047;-78
2024/01/20 07:53:04;;;;;;;31.55;15.73;;;-2.80;78.90;;;;;;4082692;29;20055;-78
2024/01/20 07:55:08;;;;;;;32.78;16.00;;;-2.70;79.40;;;;;;4100327;29;20137;-79
2024/01/20 07:57:10;;;;;;;33.65;16.67;;;-2.70;79.30;;;;;;4099726;29;20127;-78
2024/01/20 07:59:12;;;;;;;36.08;17.05;;;-2.70;79.20;;;;;;4097978;28;20126;-80
2024/01/20 08:01:14;;;;;;;41.60;17.67;;;-2.60;79.40;;;;;;4100742;29;20061;-77
2024/01/20 08:03:15;;;;;;;37.35;17.73;;;-2.60;79.60;;;;;;4103013;29;20113;-79
2024/01/20 08:05:17;;;;;;;41.42;19.52;;;-2.60;79.70;;;;;;4098000;28;20077;-80
2024/01/20 08:07:18;;;;;;;38.50;19.40;;;-2.60;79.90;;;;;;4097199;29;20400;-77
2024/01/20 08:09:20;;;;;;;43.83;20.92;;;-2.70;79.50;;;;;;4095628;29;20043;-79
2024/01/20 08:11:23;;;;;;;40.42;20.30;;;-2.70;80.10;;;;;;4101865;28;20477;-77
2024/01/20 08:13:25;;;;;;;46.67;21.52;;;-2.70;80.30;;;;;;4099124;29;20051;-80
2024/01/20 08:15:27;;;;;;;41.75;20.60;;;-2.60;80.60;;;;;;4103225;29;20074;-78
2024/01/20 08:17:29;;;;;;;40.00;19.13;;;-2.60;80.40;;;;;;4101562;29;20102;-77
2024/01/20 08:19:31;;;;;;;40.90;19.42;;;-2.50;80.40;;;;;;4103145;29;20050;-79
2024/01/20 08:21:33;;;;;;;43.08;20.60;;;-2.50;80.30;;;;;;4103486;29;20047;-79
2024/01/20 08:23:35;;;;;;;45.55;23.42;;;-2.50;80.10;;;;;;4100861;29;20497;-75
2024/01/20 08:25:37;;;;;;;44.42;20.85;;;-2.50;79.70;;;;;;4098390;29;20102;-74
2024/01/20 08:27:39;;;;;;;38.35;19.92;;;-2.60;79.70;;;;;;4103196;29;20043;-74
2024/01/20 08:29:41;;;;;;;38.70;19.48;;;-2.60;79.70;;;;;;4102717;29;20094;-74
2024/01/20 08:31:43;;;;;;;45.95;20.63;;;-2.60;79.50;;;;;;4103334;29;20135;-74
2024/01/20 08:33:45;;;;;;;48.95;22.17;;;-2.60;79.60;;;;;;4102831;29;20382;-75
2024/01/20 08:35:47;;;;;;;48.38;22.85;;;-2.60;79.20;;;;;;4102334;29;20043;-80
2024/01/20 08:37:48;;;;;;;49.30;22.98;;;-2.60;79.30;;;;;;4096653;28;20043;-75
2024/01/20 08:39:50;;;;;;;49.90;23.13;;;-2.60;79.20;;;;;;4102470;29;20059;-77
2024/01/20 08:41:52;;;;;;;48.88;23.20;;;-2.60;79.00;;;;;;4102265;29;20047;-78
2024/01/20 08:43:55;;;;;;;47.58;22.70;;;-2.50;79.50;;;;;;4082590;29;20091;-78
2024/01/20 08:45:57;;;;;;;43.28;21.17;;;-2.50;78.70;;;;;;4099840;29;20051;-81
2024/01/20 08:47:59;;;;;;;44.90;20.50;;;-2.50;78.60;;;;;;4102633;29;20043;-78
2024/01/20 08:50:01;;;;;;;39.35;18.70;;;-2.50;78.40;;;;;;4102715;29;20150;-78
2024/01/20 08:52:03;;;;;;;45.88;23.25;;;-2.40;78.40;;;;;;4102372;29;20561;-80
2024/01/20 08:54:05;;;;;;;41.40;19.48;;;-2.40;78.40;;;;;;4102641;29;20440;-81
2024/01/20 08:56:08;;;;;;;40.75;20.15;;;-2.40;78.20;;;;;;4107314;29;20048;-77
2024/01/20 08:58:10;;;;;;;41.15;19.95;;;-2.40;78.30;;;;;;4110984;29;20090;-78
2024/01/20 09:00:16;;;;;;;43.05;19.83;;;-2.30;78.40;;;;;;4111606;29;20484;-76
2024/01/20 09:02:18;;;;;;;45.80;22.02;;;-2.30;78.10;;;;;;4111915;29;20051;-74
2024/01/20 09:04:20;;;;;;;44.95;21.98;;;-2.20;78.30;;;;;;4111889;29;20106;-76
2024/01/20 09:06:22;;;;;;;49.35;23.10;;;-2.20;78.20;;;;;;4107309;29;20054;-77
2024/01/20 09:08:24;;;;;;;50.95;22.67;;;-2.10;78.40;;;;;;4107980;29;20055;-76
2024/01/20 09:10:26;;;;;;;43.78;21.20;;;-2.10;78.40;;;;;;4106642;29;20448;-75
2024/01/20 09:12:28;;;;;;;42.55;20.33;;;-2.00;77.90;;;;;;4107134;29;20054;-75
2024/01/20 09:14:30;;;;;;;39.78;20.15;;;-2.00;77.70;;;;;;4103164;29;20459;-76
2024/01/20 09:16:33;;;;;;;41.35;20.27;;;-2.00;78.00;;;;;;4103351;29;20043;-75
2024/01/20 09:18:35;;;;;;;43.45;19.83;;;-2.00;77.70;;;;;;4102161;28;20386;-79
2024/01/20 09:20:36;;;;;;;45.50;21.65;;;-2.00;77.90;;;;;;4104576;29;20051;-74
2024/01/20 09:22:38;;;;;;;49.10;21.95;;;-1.90;77.70;;;;;;4101769;28;20047;-76
2024/01/20 09:24:40;;;;;;;46.03;20.95;;;-1.90;77.10;;;;;;4102965;29;20098;-75
2024/01/20 09:26:42;;;;;;;44.97;21.63;;;-1.90;77.50;;;;;;4103087;29;20043;-77
2024/01/20 09:28:44;;;;;;;43.25;20.73;;;-2.00;78.30;;;;;;4101999;29;20047;-75
2024/01/20 09:30:46;;;;;;;44.75;20.75;;;-2.00;78.70;;;;;;4102426;29;20043;-75
2024/01/20 09:32:49;;;;;;;44.22;20.63;;;-2.00;78.10;;;;;;4102140;29;20089;-75
2024/01/20 09:34:50;;;;;;;43.95;20.92;;;-2.00;78.30;;;;;;4102155;29;20114;-77
2024/01/20 09:36:53;;;;;;;43.67;20.40;;;-1.90;78.20;;;;;;4102504;29;20047;-78
2024/01/20 09:38:54;;;;;;;46.28;20.65;;;-1.90;77.90;;;;;;4102007;29;20110;-80
2024/01/20 09:40:58;;;;;;;47.70;20.58;;;-1.90;78.50;;;;;;4102076;29;20055;-79
2024/01/20 09:43:00;;;;;;;45.13;21.25;;;-1.80;78.20;;;;;;4101913;29;20468;-79
2024/01/20 09:45:02;;;;;;;48.33;21.70;;;-1.80;78.30;;;;;;4101244;29;20047;-77
2024/01/20 09:47:04;;;;;;;50.45;21.77;;;-1.80;78.40;;;;;;4102002;29;20404;-77
2024/01/20 09:49:07;;;;;;;50.35;22.60;;;-1.80;78.60;;;;;;4101657;29;20102;-78
2024/01/20 09:51:09;;;;;;;49.65;22.05;;;-1.80;78.90;;;;;;4101890;29;20464;-79
2024/01/20 09:53:15;;;;;;;48.72;22.67;;;-1.70;78.40;;;;;;4102052;29;20109;-77
2024/01/20 09:55:19;;;;;;;44.80;20.23;;;-1.80;78.10;;;;;;4102085;29;20110;-81
2024/01/20 09:57:22;;;;;;;47.30;21.17;;;-1.80;79.10;;;;;;4097925;29;20043;-77
2024/01/20 09:59:25;;;;;;;47.67;23.10;;;-1.70;78.90;;;;;;4101710;29;20051;-78
2024/01/20 10:01:28;;;;;;;48.38;23.25;;;-1.70;78.20;;;;;;4101473;29;20106;-79
2024/01/20 10:03:32;;;;;;;45.55;22.60;;;-1.60;78.50;;;;;;4101863;29;20106;-78
2024/01/20 10:05:36;;;;;;;49.55;21.60;;;-1.60;78.30;;;;;;4101497;29;20047;-74
2024/01/20 10:07:37;;;;;;;50.55;23.42;;;-1.50;78.40;;;;;;4101905;29;20110;-81
2024/01/20 10:09:39;;;;;;;46.15;21.92;;;-1.60;78.20;;;;;;4101448;29;20469;-76
2024/01/20 10:11:40;;;;;;;49.55;23.38;;;-1.60;78.40;;;;;;4101805;29;20511;-76
2024/01/20 10:13:42;;;;;;;49.17;23.77;;;-1.50;78.20;;;;;;4101964;29;20106;-77
2024/01/20 10:15:44;;;;;;;47.85;23.85;;;-1.50;78.20;;;;;;4101903;29;20102;-79
2024/01/20 10:17:46;;;;;;;45.25;22.55;;;-1.40;78.50;;;;;;4102489;29;20504;-75
2024/01/20 10:19:48;;;;;;;50.45;23.50;;;-1.40;78.10;;;;;;4102252;29;20513;-76
2024/01/20 10:21:51;;;;;;;47.20;23.45;;;-1.40;77.60;;;;;;4102049;29;20487;-79
2024/01/20 10:23:53;;;;;;;45.60;22.23;;;-1.40;78.00;;;;;;4101849;29;20051;-77
2024/01/20 10:26:01;;;;;;;50.00;23.60;;;-1.40;78.20;;;;;;4101203;29;20423;-79
2024/01/20 10:28:04;;;;;;;47.10;23.50;;;-1.40;78.20;;;;;;4099877;28;20457;-77
2024/01/20 10:30:08;;;;;;;46.60;22.05;;;-1.30;78.40;;;;;;4101103;29;20058;-79
2024/01/20 10:32:10;;;;;;;49.23;23.17;;;-1.30;77.90;;;;;;4101013;29;20047;-77
2024/01/20 10:34:12;;;;;;;48.38;23.40;;;-1.20;77.70;;;;;;4101061;28;20047;-77
2024/01/20 10:36:16;;;;;;;45.50;22.83;;;-1.30;77.40;;;;;;4101196;29;20098;-80
2024/01/20 10:38:21;;;;;;;46.75;23.63;;;-1.20;78.40;;;;;;4101139;29;20058;-78
2024/01/20 10:40:23;;;;;;;48.25;22.98;;;-1.30;77.60;;;;;;4101588;29;20058;-78
2024/01/20 10:42:31;;;;;;;47.28;23.27;;;-1.30;77.70;;;;;;4101157;29;20055;-77
2024/01/20 10:44:34;;;;;;;50.50;23.67;;;-1.30;78.00;;;;;;4101327;29;20525;-78
2024/01/20 10:46:40;;;;;;;44.75;22.67;;;-1.20;78.20;;;;;;4100463;29;20055;-75
2024/01/20 10:48:48;;;;;;;47.40;23.55;;;-1.10;78.30;;;;;;4102352;29;20047;-75
2024/01/20 10:50:57;;;;;;;50.47;24.20;;;-1.10;77.50;;;;;;4104600;29;20058;-77
2024/01/20 10:53:00;;;;;;;49.83;23.70;;;-1.10;77.90;;;;;;4102339;29;20102;-76
2024/01/20 10:55:06;;;;;;;49.58;24.52;;;-1.10;77.70;;;;;;4103649;29;20136;-77
2024/01/20 10:57:07;;;;;;;48.15;23.90;;;-1.00;77.20;;;;;;4102776;29;20087;-76
2024/01/20 10:59:13;;;;;;;46.83;24.60;;;-1.00;77.40;;;;;;4103178;29;20454;-77
2024/01/20 11:01:16;;;;;;;45.60;24.38;;;-0.90;77.60;;;;;;4101225;29;20059;-82
2024/01/20 11:03:18;;;;;;;43.83;22.27;;;-0.90;77.40;;;;;;4101922;29;20484;-77
2024/01/20 11:05:24;;;;;;;46.03;23.33;;;-1.00;76.80;;;;;;4101162;29;20047;-79
2024/01/20 11:07:26;;;;;;;48.53;24.33;;;-0.90;77.70;;;;;;4110782;29;20051;-77
2024/01/20 11:09:29;;;;;;;64.72;30.45;;;-0.80;77.50;;;;;;4110316;29;20048;-77
2024/01/20 11:11:34;;;;;;;46.92;22.98;;;-0.80;77.20;;;;;;4086610;29;20055;-77
2024/01/20 11:13:38;;;;;;;45.05;22.58;;;-0.80;76.20;;;;;;4105252;29;20050;-77
2024/01/20 11:15:41;;;;;;;48.78;23.88;;;-0.80;76.70;;;;;;4103884;29;20055;-77
2024/01/20 11:17:43;;;;;;;45.17;22.55;;;-0.90;76.30;;;;;;4105188;29;20047;-77
2024/01/20 11:19:45;;;;;;;48.13;24.02;;;-0.80;77.10;;;;;;4101379;29;20460;-77
2024/01/20 11:21:47;;;;;;;46.67;23.83;;;-0.80;76.70;;;;;;4101719;29;20102;-77
2024/01/20 11:23:58;;;;;;;46.35;23.58;;;-0.70;77.10;;;;;;4101929;29;20453;-79
2024/01/20 11:26:12;;;;;;;47.55;22.45;;;-0.70;76.50;;;;;;4102509;29;20142;-78
2024/01/20 11:28:24;;;;;;;48.33;23.83;;;-0.70;76.50;;;;;;4086110;29;20454;-78
2024/01/20 11:30:27;;;;;;;47.33;24.17;;;-0.70;76.60;;;;;;4102658;29;20105;-77
2024/01/20 11:32:29;;;;;;;48.17;24.00;;;-0.60;77.20;;;;;;4102407;29;20442;-77
2024/01/20 11:34:31;;;;;;;43.67;23.23;;;-0.50;77.00;;;;;;4102322;29;20085;-77
2024/01/20 11:36:34;;;;;;;47.78;24.88;;;-0.50;76.30;;;;;;4101452;29;20054;-76
2024/01/20 11:38:38;;;;;;;46.63;23.08;;;-0.50;75.80;;;;;;4104827;29;20051;-80
2024/01/20 11:40:40;;;;;;;48.88;24.23;;;-0.50;75.70;;;;;;4100821;29;20054;-80
2024/01/20 11:42:42;;;;;;;47.20;23.40;;;-0.50;75.30;;;;;;4100413;29;20386;-81
2024/01/20 11:44:44;;;;;;;44.67;23.33;;;-0.40;75.20;;;;;;4100703;29;20087;-79
2024/01/20 11:46:46;;;;;;;47.85;24.38;;;-0.50;76.60;;;;;;4099842;28;20083;-79
2024/01/20 11:48:48;;;;;;;46.67;24.13;;;-0.50;76.70;;;;;;4100697;29;20044;-80
2024/01/20 11:50:51;;;;;;;43.80;22.98;;;-0.40;77.10;;;;;;4100763;29;20130;-79
2024/01/20 11:52:53;;;;;;;41.03;22.77;;;-0.30;76.70;;;;;;4100547;29;20398;-79
2024/01/20 11:54:55;;;;;;;48.22;24.00;;;-0.30;76.00;;;;;;4100456;29;20051;-80
2024/01/20 11:56:58;;;;;;;45.47;23.67;;;-0.20;76.40;;;;;;4100441;29;20059;-78
2024/01/20 11:59:00;;;;;;;45.30;21.88;;;0.00;76.50;;;;;;4100507;29;20059;-80
2024/01/20 12:01:04;;;;;;;42.58;22.75;;;0.10;76.20;;;;;;4100179;29;20106;-81
2024/01/20 12:03:06;;;;;;;48.08;23.77;;;0.20;76.00;;;;;;4100516;29;20114;-79
2024/01/20 12:05:08;;;;;;;42.88;23.35;;;0.30;75.90;;;;;;4100523;29;20051;-80
2024/01/20 12:07:10;;;;;;;39.28;22.25;;;0.30;74.80;;;;;;4100531;29;20548;-82
2024/01/20 12:09:12;;;;;;;47.70;24.35;;;0.30;74.00;;;;;;4100351;29;20496;-80
2024/01/20 12:11:19;;;;;;;45.13;22.77;;;0.40;74.60;;;;;;4100407;29;20055;-79
2024/01/20 12:13:21;;;;;;;41.00;22.10;;;0.50;74.30;;;;;;4100443;29;20089;-79
2024/01/20 12:15:23;;;;;;;48.17;24.02;;;0.60;73.20;;;;;;4100406;29;20047;-80
2024/01/20 12:17:27;;;;;;;41.25;22.63;;;0.60;73.00;;;;;;4100334;29;20051;-79
2024/01/20 12:19:28;;;;;;;41.30;22.10;;;0.70;73.10;;;;;;4100413;29;20051;-80
2024/01/20 12:21:30;;;;;;;41.60;23.08;;;0.70;72.70;;;;;;4100320;29;20474;-79
2024/01/20 12:23:32;;;;;;;42.90;22.92;;;0.80;72.40;;;;;;4100191;29;20059;-81
2024/01/20 12:25:34;;;;;;;47.10;23.58;;;0.90;72.00;;;;;;4100136;29;20046;-81
2024/01/20 12:27:36;;;;;;;40.92;22.25;;;1.10;72.70;;;;;;4099902;29;20047;-81
2024/01/20 12:29:38;;;;;;;42.38;22.83;;;1.30;73.70;;;;;;4087439;28;20048;-78
2024/01/20 12:31:39;;;;;;;44.75;24.17;;;1.40;72.10;;;;;;4084520;29;20044;-80
2024/01/20 12:33:43;;;;;;;43.75;22.20;;;1.50;71.30;;;;;;4084431;29;20107;-78
2024/01/20 12:35:45;;;;;;;43.63;22.45;;;1.60;71.40;;;;;;4084130;29;20405;-80
2024/01/20 12:37:48;;;;;;;40.78;21.08;;;1.70;70.40;;;;;;4084315;29;20135;-79
2024/01/20 12:39:49;;;;;;;40.88;22.80;;;1.80;72.00;;;;;;4085772;29;20521;-79
2024/01/20 12:41:53;;;;;;;41.58;22.77;;;2.10;72.00;;;;;;4099824;29;20090;-80
2024/01/20 12:43:55;;;;;;;40.78;23.20;;;2.30;70.10;;;;;;4100498;29;20051;-78
2024/01/20 12:45:56;;;;;;;36.85;20.92;;;2.40;69.10;;;;;;4100193;29;20098;-73
2024/01/20 12:47:58;;;;;;;42.33;23.13;;;2.60;68.30;;;;;;4099485;29;20051;-75
2024/01/20 12:50:01;;;;;;;39.70;22.45;;;2.70;67.60;;;;;;4100198;29;20048;-80
2024/01/20 12:52:05;;;;;;;39.40;22.10;;;3.00;67.60;;;;;;4098709;28;20047;-76
2024/01/20 12:54:07;;;;;;;37.90;21.48;;;3.30;67.50;;;;;;4098129;28;20379;-78
2024/01/20 12:56:09;;;;;;;38.58;21.85;;;3.60;66.40;;;;;;4097975;29;20462;-80
2024/01/20 12:58:11;;;;;;;36.38;21.33;;;3.90;64.80;;;;;;4100578;28;20453;-80
2024/01/20 13:00:14;;;;;;;37.55;20.58;;;4.20;61.90;;;;;;4100743;29;20088;-78
2024/01/20 13:02:16;;;;;;;36.78;21.75;;;4.40;61.50;;;;;;4100584;29;20047;-77
2024/01/20 13:04:18;;;;;;;34.60;20.63;;;4.90;61.40;;;;;;4100544;29;20055;-79
2024/01/20 13:06:22;;;;;;;33.08;19.02;;;5.60;59.60;;;;;;4100008;29;20054;-78
2024/01/20 13:08:24;;;;;;;35.97;19.83;;;7.20;56.90;;;;;;4100397;29;20063;-79
2024/01/20 13:10:25;;;;;;;34.53;20.00;;;11.20;49.40;;;;;;4100196;29;20067;-78
2024/01/20 13:12:28;;;;;;;33.53;19.17;;;14.30;41.30;;;;;;4098835;29;20114;-78
2024/01/20 13:14:30;;;;;;;33.28;19.27;;;16.40;36.70;;;;;;4100916;29;20139;-80
2024/01/20 13:16:32;;;;;;;34.78;20.58;;;18.30;32.50;;;;;;4100610;29;20055;-81
2024/01/20 13:18:34;;;;;;;32.47;21.27;;;19.60;30.00;;;;;;4099759;29;20106;-80
2024/01/20 13:20:36;;;;;;;31.85;22.02;;;20.70;28.30;;;;;;4099752;29;20047;-79
2024/01/20 13:22:39;;;;;;;30.13;22.25;;;21.90;26.30;;;;;;4100507;29;20067;-77
2024/01/20 13:24:40;;;;;;;30.77;21.27;;;22.40;25.10;;;;;;4100173;29;20047;-77
2024/01/20 13:26:41;;;;;;;33.00;22.83;;;23.00;24.70;;;;;;4100388;29;20486;-79
2024/01/20 13:28:46;;;;;;;32.95;23.60;;;23.20;23.30;;;;;;4100350;28;20047;-80
2024/01/20 13:30:47;;;;;;;30.35;22.58;;;23.70;23.80;;;;;;4098971;28;20113;-79
2024/01/20 13:32:49;;;;;;;30.23;22.88;;;24.90;22.50;;;;;;4100478;29;20441;-76
2024/01/20 13:34:51;;;;;;;32.10;22.88;;;25.60;21.70;;;;;;4100380;29;20097;-80
2024/01/20 13:36:53;;;;;;;29.90;22.05;;;26.00;20.80;;;;;;4100222;29;20142;-78
2024/01/20 13:38:56;;;;;;;28.73;22.25;;;26.50;20.50;;;;;;4100053;29;20047;-76
2024/01/20 13:40:58;;;;;;;29.25;22.42;;;27.30;20.30;;;;;;4099873;29;20058;-78
2024/01/20 13:43:00;;;;;;;29.73;22.38;;;27.60;19.70;;;;;;4099934;29;20059;-76
2024/01/20 13:45:02;;;;;;;28.00;20.58;;;28.20;19.20;;;;;;4100026;29;20055;-73
2024/01/20 13:47:06;;;;;;;28.05;21.50;;;28.50;19.10;;;;;;4100147;29;20107;-76
2024/01/20 13:49:08;;;;;;;25.48;21.13;;;29.10;18.00;;;;;;4099657;29;20066;-77
2024/01/20 13:51:09;;;;;;;25.33;19.60;;;29.80;18.00;;;;;;4099503;29;20094;-78
2024/01/20 13:53:10;;;;;;;26.65;20.08;;;29.80;17.70;;;;;;4099829;29;20051;-78
2024/01/20 13:55:16;;;;;;;27.15;19.77;;;29.40;18.10;;;;;;4099515;29;20047;-79
2024/01/20 13:57:18;;;;;;;25.02;19.95;;;30.10;17.50;;;;;;4099439;29;20424;-75
2024/01/20 13:59:19;;;;;;;27.55;20.70;;;30.70;16.60;;;;;;4099942;29;20121;-77
2024/01/20 14:01:22;;;;;;;25.10;20.50;;;30.40;16.20;;;;;;4098438;28;20059;-80
2024/01/20 14:03:24;;;;;;;25.25;21.20;;;30.70;16.80;;;;;;4083943;29;20199;-78
2024/01/20 14:05:26;;;;;;;27.40;21.83;;;31.00;16.60;;;;;;4084069;29;20055;-77
2024/01/20 14:07:27;;;;;;;26.30;22.52;;;31.30;16.20;;;;;;4094549;29;20374;-78
2024/01/20 14:09:29;;;;;;;28.17;22.42;;;31.90;15.90;;;;;;4098926;28;20048;-79
2024/01/20 14:11:33;;;;;;;27.60;21.25;;;32.10;16.10;;;;;;4099443;29;20382;-76
2024/01/20 14:13:35;;;;;;;25.13;21.10;;;31.30;15.90;;;;;;4097791;29;20055;-78
2024/01/20 14:15:38;;;;;;;26.88;20.80;;;31.50;15.60;;;;;;4082665;29;20455;-75
2024/01/20 14:17:40;;;;;;;24.67;21.23;;;31.80;15.90;;;;;;4099690;29;20544;-75
2024/01/20 14:19:41;;;;;;;28.38;23.55;;;32.00;15.50;;;;;;4099732;29;20082;-77
2024/01/20 14:21:43;;;;;;;33.00;27.40;;;32.00;15.30;;;;;;4099515;29;20055;-77
2024/01/20 14:23:45;;;;;;;32.58;25.88;;;31.70;15.40;;;;;;4099645;29;20043;-79
2024/01/20 14:25:47;;;;;;;28.88;22.92;;;31.90;15.30;;;;;;4099131;29;20044;-78
2024/01/20 14:27:50;;;;;;;26.58;21.70;;;32.00;15.30;;;;;;4099160;29;20067;-77
2024/01/20 14:29:53;;;;;;;26.13;21.67;;;32.10;14.90;;;;;;4099289;29;20441;-77
2024/01/20 14:31:54;;;;;;;23.88;20.13;;;32.10;15.10;;;;;;4098497;28;20094;-79
2024/01/20 14:33:56;;;;;;;24.98;20.23;;;31.90;15.00;;;;;;4098642;29;20055;-77
2024/01/20 14:35:57;;;;;;;25.98;20.98;;;30.80;15.50;;;;;;4098662;29;20062;-79
2024/01/20 14:37:58;;;;;;;28.13;22.13;;;30.90;15.90;;;;;;4098667;29;20051;-79
2024/01/20 14:40:00;;;;;;;26.30;22.38;;;30.60;15.70;;;;;;4098091;29;20094;-76
2024/01/20 14:42:02;;;;;;;26.92;22.48;;;29.70;16.10;;;;;;4096374;28;20413;-77
2024/01/20 14:44:05;;;;;;;25.17;22.15;;;29.00;16.30;;;;;;4097104;28;20054;-80
2024/01/20 14:46:07;;;;;;;29.33;23.42;;;28.00;17.10;;;;;;4097902;29;20051;-79
2024/01/20 14:48:11;;;;;;;29.40;25.45;;;27.90;16.50;;;;;;4097697;29;20063;-80
2024/01/20 14:50:12;;;;;;;29.85;26.50;;;27.40;17.60;;;;;;4094157;29;20086;-74
2024/01/20 14:52:14;;;;;;;36.95;29.67;;;27.90;17.40;;;;;;4097833;29;20386;-81
2024/01/20 14:54:16;;;;;;;32.03;28.00;;;28.10;17.20;;;;;;4098593;29;20523;-80
2024/01/20 14:56:18;;;;;;;29.27;24.80;;;28.20;17.10;;;;;;4096561;29;20051;-79
2024/01/20 14:58:20;;;;;;;27.67;23.90;;;27.80;17.40;;;;;;4098024;29;20095;-78
2024/01/20 15:00:24;;;;;;;28.10;25.08;;;27.40;17.70;;;;;;4097314;29;20098;-78
2024/01/20 15:02:26;;;;;;;32.22;25.52;;;27.40;17.80;;;;;;4070069;29;20040;-77
2024/01/20 15:04:29;;;;;;;27.35;24.17;;;27.00;17.80;;;;;;4076407;29;20469;-80
2024/01/20 15:06:31;;;;;;;28.42;25.13;;;26.60;17.80;;;;;;4058332;29;20079;-81
2024/01/20 15:08:33;;;;;;;29.95;25.00;;;26.40;18.00;;;;;;4072133;29;20680;-80
2024/01/20 15:10:35;;;;;;;30.13;23.20;;;25.90;18.30;;;;;;4071411;29;20048;-78
2024/01/20 15:12:36;;;;;;;28.85;22.85;;;25.50;18.70;;;;;;4065973;29;20059;-81
2024/01/20 15:14:40;;;;;;;28.60;22.02;;;24.90;18.90;;;;;;4062589;29;20100;-79
2024/01/20 15:16:43;;;;;;;29.67;22.15;;;24.40;19.30;;;;;;4067483;29;20052;-78
2024/01/20 15:18:45;;;;;;;27.45;20.70;;;23.80;19.90;;;;;;4066650;29;20591;-76
2024/01/20 15:20:47;;;;;;;29.45;21.98;;;23.20;20.30;;;;;;4065814;29;20051;-79
2024/01/20 15:22:49;;;;;;;27.48;21.15;;;22.50;20.70;;;;;;4066808;29;20483;-78
2024/01/20 15:24:50;;;;;;;26.33;21.42;;;21.90;21.20;;;;;;4066415;29;20502;-79
2024/01/20 15:26:52;;;;;;;35.10;23.27;;;21.10;21.90;;;;;;4066304;29;20059;-78
2024/01/20 15:28:54;;;;;;;32.72;22.80;;;20.60;22.30;;;;;;4066725;29;20484;-77
2024/01/20 15:30:55;;;;;;;28.60;22.08;;;20.20;22.90;;;;;;4065983;29;20044;-78
2024/01/20 15:33:00;;;;;;;30.80;22.50;;;20.10;23.50;;;;;;4066710;29;20052;-79
2024/01/20 15:35:02;;;;;;;30.90;21.88;;;19.60;23.90;;;;;;4066491;29;20052;-77
2024/01/20 15:37:05;;;;;;;29.85;20.80;;;19.20;24.30;;;;;;4066583;29;20123;-75
2024/01/20 15:39:07;;;;;;;30.70;21.05;;;18.20;25.00;;;;;;4066564;29;20094;-76
2024/01/20 15:41:08;;;;;;;31.30;20.60;;;17.40;26.30;;;;;;4066567;29;20079;-78
2024/01/20 15:43:09;;;;;;;29.65;20.45;;;16.60;27.70;;;;;;4066181;29;20048;-78
2024/01/20 15:45:11;;;;;;;33.10;21.55;;;15.20;29.30;;;;;;4066588;29;20107;-77
2024/01/20 15:47:13;;;;;;;31.50;21.40;;;13.70;31.40;;;;;;4066433;29;20097;-78
2024/01/20 15:49:17;;;;;;;32.05;20.98;;;12.40;33.70;;;;;;4066645;29;20055;-75
2024/01/20 15:51:18;;;;;;;33.00;21.20;;;11.30;36.20;;;;;;4065953;29;20095;-75
2024/01/20 15:53:20;;;;;;;32.92;20.58;;;10.50;37.80;;;;;;4066374;29;20100;-77
2024/01/20 15:55:22;;;;;;;32.70;20.42;;;9.90;39.30;;;;;;4065697;29;20455;-79
2024/01/20 15:57:27;;;;;;;36.20;20.48;;;9.40;40.50;;;;;;4056042;29;20554;-78
2024/01/20 15:59:29;;;;;;;37.47;21.27;;;8.90;41.50;;;;;;4062086;29;20052;-80
2024/01/20 16:01:31;;;;;;;36.42;21.45;;;8.40;43.00;;;;;;4055671;29;20137;-81
2024/01/20 16:03:33;;;;;;;32.25;20.63;;;7.90;44.90;;;;;;4066511;29;20092;-79
2024/01/20 16:05:36;;;;;;;34.15;20.77;;;7.50;45.90;;;;;;4066463;29;20492;-81
2024/01/20 16:07:37;;;;;;;33.03;20.63;;;7.10;47.00;;;;;;4066102;29;20063;-81
2024/01/20 16:09:39;;;;;;;32.53;20.67;;;6.70;48.00;;;;;;4066573;29;20128;-79
2024/01/20 16:11:40;;;;;;;33.97;20.52;;;6.50;49.10;;;;;;4066443;29;20430;-80
2024/01/20 16:13:42;;;;;;;38.13;20.90;;;6.10;50.10;;;;;;4068387;29;20044;-76
2024/01/20 16:15:44;;;;;;;35.35;19.90;;;5.80;51.10;;;;;;4077703;29;20054;-78
2024/01/20 16:17:46;;;;;;;37.17;21.00;;;5.50;52.00;;;;;;4079890;29;20067;-77
2024/01/20 16:19:48;;;;;;;36.05;20.50;;;5.30;52.90;;;;;;4071886;29;20098;-76
2024/01/20 16:21:53;;;;;;;37.42;21.25;;;5.10;53.50;;;;;;4069286;29;20056;-76